createdAt,value
2023-01-09T00:00:24.089Z,96820.63
2023-01-09T00:02:50.745Z,96817.88
2023-01-09T00:05:19.208Z,96818.81
2023-01-09T00:07:46.069Z,96823.09
2023-01-09T00:10:13.515Z,96813.59
2023-01-09T00:12:40.086Z,96814.06
2023-01-09T00:15:07.196Z,96806.19
2023-01-09T00:17:33.725Z,96802.41
2023-01-09T00:20:00.580Z,96805.88
2023-01-09T00:22:27.122Z,96800.50
2023-01-09T00:24:53.750Z,96801.59
2023-01-09T00:27:20.316Z,96804.81
2023-01-09T00:29:47.698Z,96796.22
2023-01-09T00:32:14.263Z,96801.94
2023-01-09T00:34:43.014Z,96799.31
2023-01-09T00:37:12.895Z,96804.44
2023-01-09T00:39:40.286Z,96807.88
2023-01-09T00:42:10.247Z,96805.25
2023-01-09T00:44:45.523Z,96809.38
2023-01-09T00:47:21.534Z,96802.34
2023-01-09T00:49:49.179Z,96804.97
2023-01-09T00:52:16.549Z,96797.59
2023-01-09T00:54:44.202Z,96807.09
2023-01-09T00:57:12.931Z,96801.06
2023-01-09T00:59:41.170Z,96806.06
2023-01-09T01:02:07.987Z,96807.72
2023-01-09T01:04:53.301Z,96808.44
2023-01-09T01:07:38.554Z,96814.50
2023-01-09T01:10:08.658Z,96816.16
2023-01-09T01:12:35.271Z,96827.31
2023-01-09T01:15:02.281Z,96829.84
2023-01-09T01:17:28.820Z,96819.59
2023-01-09T01:19:55.500Z,96830.97
2023-01-09T01:22:22.223Z,96843.31
2023-01-09T01:24:48.870Z,96843.44
2023-01-09T01:27:15.416Z,96849.25
2023-01-09T01:29:41.986Z,96844.41
2023-01-09T01:32:08.747Z,96845.22
2023-01-09T01:34:35.260Z,96854.72
2023-01-09T01:37:01.835Z,96848.78
2023-01-09T01:39:28.398Z,96846.25
2023-01-09T01:41:54.976Z,96843.66
2023-01-09T01:44:59.154Z,96861.09
2023-01-09T01:47:39.852Z,96856.94
2023-01-09T01:50:26.903Z,96856.94
2023-01-09T01:53:13.823Z,96861.44
2023-01-09T01:56:04.006Z,96869.16
2023-01-09T01:58:31.650Z,96867.38
2023-01-09T02:00:58.608Z,96869.38
2023-01-09T02:03:27.379Z,96875.53
2023-01-09T02:05:54.004Z,96885.88
2023-01-09T02:08:21.711Z,96890.38
2023-01-09T02:10:49.679Z,96903.66
2023-01-09T02:13:17.107Z,96916.00
2023-01-09T02:16:14.758Z,96915.38
2023-01-09T02:19:04.123Z,96936.97
2023-01-09T02:21:36.974Z,96929.38
2023-01-09T02:24:29.401Z,96943.22
2023-01-09T02:27:13.119Z,96937.28
2023-01-09T02:30:04.656Z,96939.50
2023-01-09T02:32:49.372Z,96935.22
2023-01-09T02:35:18.815Z,96936.41
2023-01-09T02:37:56.479Z,96934.81
2023-01-09T02:40:41.633Z,96931.72
2023-01-09T02:43:10.078Z,96931.81
2023-01-09T02:45:36.699Z,96941.44
2023-01-09T02:48:03.392Z,96939.75
2023-01-09T02:50:39.758Z,96940.81
2023-01-09T02:53:31.250Z,96946.25
2023-01-09T02:56:16.696Z,96955.09
2023-01-09T02:59:12.556Z,96947.00
2023-01-09T03:01:44.821Z,96946.91
2023-01-09T03:04:21.980Z,96957.22
2023-01-09T03:07:00.497Z,96969.31
2023-01-09T03:09:29.553Z,96982.66
2023-01-09T03:12:02.725Z,96983.41
2023-01-09T03:14:31.972Z,96981.84
2023-01-09T03:17:03.751Z,96988.91
2023-01-09T03:19:32.102Z,96993.22
2023-01-09T03:21:59.156Z,96999.25
2023-01-09T03:24:26.041Z,96999.97
2023-01-09T03:26:55.146Z,97007.81
2023-01-09T03:29:21.796Z,97006.78
2023-01-09T03:31:48.391Z,97017.31
2023-01-09T03:34:15.275Z,97019.69
2023-01-09T03:36:41.860Z,97026.69
2023-01-09T03:39:08.448Z,97023.97
2023-01-09T03:41:34.980Z,97025.97
2023-01-09T03:44:01.578Z,97032.66
2023-01-09T03:46:28.141Z,97050.03
2023-01-09T03:48:54.703Z,97040.78
2023-01-09T03:51:21.229Z,97056.84
2023-01-09T03:53:48.090Z,97058.78
2023-01-09T03:56:15.167Z,97063.16
2023-01-09T03:58:41.734Z,97073.91
2023-01-09T04:01:14.380Z,97071.41
2023-01-09T04:03:41.044Z,97076.69
2023-01-09T04:06:07.895Z,97085.78
2023-01-09T04:08:34.668Z,97084.13
2023-01-09T04:11:01.249Z,97084.78
2023-01-09T04:13:27.863Z,97080.91
2023-01-09T04:15:54.500Z,97082.38
2023-01-09T04:18:21.009Z,97084.38
2023-01-09T04:20:48.507Z,97093.84
2023-01-09T04:23:15.496Z,97088.53
2023-01-09T04:25:42.036Z,97107.69
2023-01-09T04:28:08.640Z,97111.44
2023-01-09T04:30:35.336Z,97124.47
2023-01-09T04:33:01.982Z,97118.72
2023-01-09T04:35:28.557Z,97122.56
2023-01-09T04:37:55.209Z,97114.16
2023-01-09T04:40:21.858Z,97114.16
2023-01-09T04:42:48.449Z,97129.91
2023-01-09T04:45:15.723Z,97122.19
2023-01-09T04:47:42.366Z,97126.38
2023-01-09T04:50:10.558Z,97130.94
2023-01-09T04:52:38.930Z,97140.53
2023-01-09T04:55:07.509Z,97138.41
2023-01-09T04:57:34.686Z,97128.72
2023-01-09T05:00:01.739Z,97128.59
2023-01-09T05:02:28.308Z,97131.13
2023-01-09T05:04:54.873Z,97131.41
2023-01-09T05:07:21.553Z,97134.00
2023-01-09T05:09:48.260Z,97130.69
2023-01-09T05:12:14.803Z,97138.41
2023-01-09T05:14:41.439Z,97143.69
2023-01-09T05:17:08.027Z,97150.56
2023-01-09T05:19:34.650Z,97141.63
2023-01-09T05:22:01.270Z,97152.25
2023-01-09T05:24:27.878Z,97146.75
2023-01-09T05:26:54.493Z,97140.69
2023-01-09T05:29:21.144Z,97140.28
2023-01-09T05:31:47.797Z,97141.09
2023-01-09T05:34:14.455Z,97149.03
2023-01-09T05:36:41.111Z,97150.84
2023-01-09T05:39:07.740Z,97157.47
2023-01-09T05:41:34.317Z,97164.66
2023-01-09T05:44:00.987Z,97168.06
2023-01-09T05:46:27.560Z,97170.66
2023-01-09T05:48:54.147Z,97170.88
2023-01-09T05:51:20.737Z,97170.59
2023-01-09T05:53:47.530Z,97169.47
2023-01-09T05:56:14.298Z,97179.22
2023-01-09T05:58:40.925Z,97175.88
2023-01-09T06:01:08.060Z,97172.88
2023-01-09T06:03:34.766Z,97175.59
2023-01-09T06:06:01.748Z,97170.19
2023-01-09T06:08:28.354Z,97178.00
2023-01-09T06:10:54.910Z,97175.13
2023-01-09T06:13:21.503Z,97175.94
2023-01-09T06:15:48.711Z,97174.00
2023-01-09T06:18:15.635Z,97174.75
2023-01-09T06:20:43.844Z,97174.94
2023-01-09T06:23:12.207Z,97173.72
2023-01-09T06:25:39.988Z,97166.91
2023-01-09T06:28:07.440Z,97164.50
2023-01-09T06:30:34.229Z,97183.09
2023-01-09T06:33:00.852Z,97184.50
2023-01-09T06:35:27.434Z,97190.47
2023-01-09T06:37:54.044Z,97194.56
2023-01-09T06:40:21.278Z,97187.69
2023-01-09T06:42:49.358Z,97187.69
2023-01-09T06:45:16.375Z,97188.22
2023-01-09T06:47:43.202Z,97188.03
2023-01-09T06:50:10.960Z,97196.56
2023-01-09T06:52:38.318Z,97189.63
2023-01-09T06:55:05.529Z,97202.66
2023-01-09T06:57:32.222Z,97200.31
2023-01-09T06:59:58.779Z,97203.66
2023-01-09T07:02:25.425Z,97214.28
2023-01-09T07:04:52.005Z,97207.41
2023-01-09T07:07:19.823Z,97225.09
2023-01-09T07:09:46.559Z,97230.09
2023-01-09T07:12:13.477Z,97224.97
2023-01-09T07:14:40.020Z,97231.03
2023-01-09T07:17:07.034Z,97231.03
2023-01-09T07:19:33.666Z,97230.94
2023-01-09T07:22:00.253Z,97232.78
2023-01-09T07:24:26.843Z,97235.41
2023-01-09T07:26:53.405Z,97240.59
2023-01-09T07:29:19.959Z,97234.31
2023-01-09T07:31:46.983Z,97249.94
2023-01-09T07:34:13.645Z,97239.19
2023-01-09T07:36:40.146Z,97227.84
2023-01-09T07:39:06.725Z,97230.66
2023-01-09T07:41:33.433Z,97246.81
2023-01-09T07:44:00.689Z,97243.41
2023-01-09T07:46:28.875Z,97246.00
2023-01-09T07:48:55.598Z,97246.94
2023-01-09T07:51:22.174Z,97243.47
2023-01-09T07:53:48.746Z,97245.16
2023-01-09T07:56:15.387Z,97262.66
2023-01-09T07:58:41.942Z,97256.63
2023-01-09T08:01:08.563Z,97247.94
2023-01-09T08:03:35.259Z,97255.78
2023-01-09T08:06:02.005Z,97264.44
2023-01-09T08:08:28.911Z,97254.75
2023-01-09T08:10:55.487Z,97259.78
2023-01-09T08:13:22.122Z,97258.03
2023-01-09T08:15:48.754Z,97261.44
2023-01-09T08:18:15.699Z,97269.06
2023-01-09T08:20:42.258Z,97275.94
2023-01-09T08:23:08.859Z,97271.59
2023-01-09T08:25:35.693Z,97269.06
2023-01-09T08:28:02.293Z,97276.06
2023-01-09T08:30:28.886Z,97271.66
2023-01-09T08:32:55.627Z,97273.25
2023-01-09T08:35:22.331Z,97276.59
2023-01-09T08:37:49.267Z,97271.47
2023-01-09T08:40:17.399Z,97272.13
2023-01-09T08:43:03.111Z,97267.66
2023-01-09T08:45:49.386Z,97268.72
2023-01-09T08:48:16.955Z,97281.81
2023-01-09T08:50:44.318Z,97280.06
2023-01-09T08:53:11.701Z,97278.75
2023-01-09T08:55:39.048Z,97276.88
2023-01-09T08:58:05.664Z,97266.16
2023-01-09T09:00:32.292Z,97280.69
2023-01-09T09:03:00.294Z,97275.91
2023-01-09T09:05:29.648Z,97279.47
2023-01-09T09:07:56.539Z,97276.84
2023-01-09T09:10:25.032Z,97274.78
2023-01-09T09:12:54.029Z,97279.25
2023-01-09T09:15:25.155Z,97278.44
2023-01-09T09:17:54.445Z,97281.78
2023-01-09T09:20:22.665Z,97279.19
2023-01-09T09:22:49.904Z,97288.56
2023-01-09T09:25:17.519Z,97299.09
2023-01-09T09:27:44.438Z,97293.94
2023-01-09T09:30:13.272Z,97294.69
2023-01-09T09:32:40.618Z,97297.22
2023-01-09T09:35:07.492Z,97301.38
2023-01-09T09:37:34.584Z,97307.91
2023-01-09T09:40:09.840Z,97305.09
2023-01-09T09:43:22.248Z,97306.28
2023-01-09T09:46:07.056Z,97306.88
2023-01-09T09:48:38.005Z,97308.22
2023-01-09T09:51:07.581Z,97313.44
2023-01-09T09:53:53.494Z,97301.28
2023-01-09T09:56:23.167Z,97309.84
2023-01-09T09:58:54.341Z,97311.03
2023-01-09T10:01:39.697Z,97305.72
2023-01-09T10:04:12.249Z,97314.06
2023-01-09T10:06:48.490Z,97312.47
2023-01-09T10:09:54.672Z,97314.13
2023-01-09T10:12:27.156Z,97339.22
2023-01-09T10:14:55.918Z,97306.25
2023-01-09T10:17:40.735Z,97306.16
2023-01-09T10:20:30.441Z,97316.03
2023-01-09T10:23:29.555Z,97312.50
2023-01-09T10:26:11.226Z,97314.00
2023-01-09T10:28:55.894Z,97314.56
2023-01-09T10:31:22.432Z,97314.56
2023-01-09T10:34:21.450Z,97317.81
2023-01-09T10:37:09.565Z,97324.97
2023-01-09T10:39:39.859Z,97330.75
2023-01-09T10:42:25.043Z,97326.78
2023-01-09T10:45:02.479Z,97325.53
2023-01-09T10:47:39.590Z,97320.53
2023-01-09T10:50:24.633Z,97325.75
2023-01-09T10:52:53.486Z,97326.13
2023-01-09T10:55:40.868Z,97323.25
2023-01-09T10:58:19.426Z,97318.84
2023-01-09T11:00:47.565Z,97313.63
2023-01-09T11:03:23.367Z,97323.88
2023-01-09T11:05:58.718Z,97323.97
2023-01-09T11:08:40.135Z,97326.41
2023-01-09T11:11:06.797Z,97324.44
2023-01-09T11:13:34.988Z,97322.84
2023-01-09T11:16:10.927Z,97324.91
2023-01-09T11:18:40.982Z,97322.19
2023-01-09T11:21:13.578Z,97323.25
2023-01-09T11:23:40.248Z,97322.94
2023-01-09T11:26:23.066Z,97328.47
2023-01-09T11:29:06.382Z,97330.75
2023-01-09T11:31:33.895Z,97347.91
2023-01-09T11:34:00.590Z,97333.00
2023-01-09T11:36:28.639Z,97349.94
2023-01-09T11:39:00.433Z,97346.97
2023-01-09T11:41:32.320Z,97343.19
2023-01-09T11:44:00.231Z,97340.84
2023-01-09T11:46:40.933Z,97346.41
2023-01-09T11:49:26.600Z,97352.00
2023-01-09T11:52:16.004Z,97343.69
2023-01-09T11:55:06.124Z,97346.75
2023-01-09T11:57:33.765Z,97337.91
2023-01-09T12:00:03.788Z,97329.44
2023-01-09T12:02:53.466Z,97339.16
2023-01-09T12:05:51.039Z,97326.78
2023-01-09T12:08:26.793Z,97322.38
2023-01-09T12:11:02.119Z,97314.22
2023-01-09T12:13:50.203Z,97315.25
2023-01-09T12:16:39.570Z,97317.50
2023-01-09T12:19:15.690Z,97304.69
2023-01-09T12:21:57.517Z,97309.81
2023-01-09T12:25:00.878Z,97316.44
2023-01-09T12:28:00.204Z,97316.94
2023-01-09T12:31:03.921Z,97312.31
2023-01-09T12:34:02.557Z,97320.06
2023-01-09T12:36:53.616Z,97314.31
2023-01-09T12:39:51.219Z,97313.47
2023-01-09T12:42:34.650Z,97312.56
2023-01-09T12:45:33.726Z,97314.03
2023-01-09T12:48:28.306Z,97329.38
2023-01-09T12:51:01.659Z,97324.38
2023-01-09T12:53:36.503Z,97327.28
2023-01-09T12:56:35.899Z,97335.97
2023-01-09T12:59:31.882Z,97332.72
2023-01-09T13:02:09.181Z,97334.94
2023-01-09T13:04:42.729Z,97336.25
2023-01-09T13:07:41.935Z,97346.56
2023-01-09T13:10:33.273Z,97343.63
2023-01-09T13:13:06.442Z,97351.53
2023-01-09T13:15:39.682Z,97337.22
2023-01-09T13:18:32.145Z,97342.66
2023-01-09T13:20:59.864Z,97350.06
2023-01-09T13:23:49.541Z,97360.03
2023-01-09T13:26:28.872Z,97364.81
2023-01-09T13:29:06.228Z,97364.28
2023-01-09T13:32:01.860Z,97378.84
2023-01-09T13:34:31.290Z,97370.22
2023-01-09T13:36:59.238Z,97373.69
2023-01-09T13:39:35.096Z,97378.25
2023-01-09T13:42:25.325Z,97382.75
2023-01-09T13:45:06.719Z,97378.41
2023-01-09T13:47:33.538Z,97378.63
2023-01-09T13:50:01.856Z,97376.63
2023-01-09T13:52:34.204Z,97379.59
2023-01-09T13:55:17.064Z,97374.28
2023-01-09T13:58:22.550Z,97382.50
2023-01-09T14:00:50.878Z,97383.53
2023-01-09T14:03:26.789Z,97382.59
2023-01-09T14:05:53.254Z,97381.03
2023-01-09T14:08:22.693Z,97382.25
2023-01-09T14:10:58.785Z,97390.47
2023-01-09T14:13:37.611Z,97395.44
2023-01-09T14:16:25.669Z,97394.50
2023-01-09T14:19:12.958Z,97391.63
2023-01-09T14:21:57.137Z,97404.88
2023-01-09T14:24:39.042Z,97404.88
2023-01-09T14:27:25.893Z,97414.84
2023-01-09T14:30:27.371Z,97415.59
2023-01-09T14:32:58.006Z,97423.69
2023-01-09T14:35:29.344Z,97434.31
2023-01-09T14:38:10.840Z,97439.81
2023-01-09T14:40:37.451Z,97444.72
2023-01-09T14:43:31.513Z,97458.16
2023-01-09T14:46:08.868Z,97472.28
2023-01-09T14:48:38.781Z,97488.19
2023-01-09T14:51:08.986Z,97490.50
2023-01-09T14:53:39.338Z,97501.84
2023-01-09T14:56:08.402Z,97506.16
2023-01-09T14:58:38.298Z,97513.34
2023-01-09T15:01:16.942Z,97516.13
2023-01-09T15:03:50.873Z,97512.91
2023-01-09T15:06:24.532Z,97531.91
2023-01-09T15:09:03.247Z,97529.66
2023-01-09T15:11:32.415Z,97542.84
2023-01-09T15:14:00.289Z,97551.09
2023-01-09T15:16:27.854Z,97553.78
2023-01-09T15:19:02.260Z,97560.84
2023-01-09T15:21:33.370Z,97565.97
2023-01-09T15:24:12.201Z,97572.09
2023-01-09T15:26:40.108Z,97575.34
2023-01-09T15:29:18.184Z,97581.34
2023-01-09T15:31:54.632Z,97588.06
2023-01-09T15:34:23.858Z,97584.19
2023-01-09T15:36:52.607Z,97600.41
2023-01-09T15:39:36.007Z,97604.94
2023-01-09T15:42:22.163Z,97617.88
2023-01-09T15:44:52.223Z,97624.59
2023-01-09T15:47:27.742Z,97627.63
2023-01-09T15:49:56.658Z,97640.34
2023-01-09T15:52:23.676Z,97636.19
2023-01-09T15:54:50.702Z,97642.25
2023-01-09T15:57:26.462Z,97648.16
2023-01-09T15:59:54.335Z,97654.34
2023-01-09T16:02:41.441Z,97651.00
2023-01-09T16:05:17.905Z,97658.72
2023-01-09T16:07:46.438Z,97667.53
2023-01-09T16:10:37.561Z,97671.66
2023-01-09T16:13:04.180Z,97671.66
2023-01-09T16:15:34.103Z,97680.22
2023-01-09T16:18:27.995Z,97687.88
2023-01-09T16:21:06.259Z,97693.94
2023-01-09T16:23:35.334Z,97696.44
2023-01-09T16:26:14.142Z,97706.03
2023-01-09T16:28:43.516Z,97710.38
2023-01-09T16:31:27.406Z,97701.81
2023-01-09T16:34:06.453Z,97711.16
2023-01-09T16:36:36.630Z,97709.34
2023-01-09T16:39:06.959Z,97712.25
2023-01-09T16:41:52.202Z,97718.31
2023-01-09T16:44:19.409Z,97721.06
2023-01-09T16:46:46.577Z,97719.53
2023-01-09T16:49:19.128Z,97733.56
2023-01-09T16:51:46.983Z,97729.94
2023-01-09T16:54:13.808Z,97740.38
2023-01-09T16:56:42.655Z,97741.47
2023-01-09T16:59:14.658Z,97745.91
2023-01-09T17:01:43.340Z,97756.38
2023-01-09T17:04:14.659Z,97754.66
2023-01-09T17:06:42.394Z,97754.72
2023-01-09T17:09:14.355Z,97758.25
2023-01-09T17:11:41.169Z,97766.16
2023-01-09T17:14:09.585Z,97769.69
2023-01-09T17:16:36.994Z,97769.69
2023-01-09T17:19:05.268Z,97774.03
2023-01-09T17:21:32.048Z,97779.06
2023-01-09T17:24:18.259Z,97785.13
2023-01-09T17:27:09.476Z,97800.53
2023-01-09T17:29:36.380Z,97798.84
2023-01-09T17:32:03.104Z,97803.19
2023-01-09T17:34:29.809Z,97803.38
2023-01-09T17:36:56.579Z,97815.47
2023-01-09T17:39:23.723Z,97820.56
2023-01-09T17:41:50.300Z,97816.22
2023-01-09T17:44:17.163Z,97819.00
2023-01-09T17:46:45.061Z,97825.94
2023-01-09T17:49:20.422Z,97820.50
2023-01-09T17:51:47.049Z,97830.09
2023-01-09T17:54:13.703Z,97830.09
2023-01-09T17:56:43.851Z,97835.97
2023-01-09T17:59:15.301Z,97842.81
2023-01-09T18:01:43.477Z,97839.59
2023-01-09T18:04:10.408Z,97847.31
2023-01-09T18:06:37.736Z,97840.34
2023-01-09T18:09:05.397Z,97844.66
2023-01-09T18:11:32.180Z,97851.69
2023-01-09T18:13:58.900Z,97850.63
2023-01-09T18:16:27.829Z,97849.69
2023-01-09T18:18:57.896Z,97854.97
2023-01-09T18:21:26.826Z,97860.13
2023-01-09T18:23:53.598Z,97861.72
2023-01-09T18:26:21.446Z,97869.63
2023-01-09T18:28:55.137Z,97869.53
2023-01-09T18:31:24.413Z,97869.63
2023-01-09T18:33:53.255Z,97873.84
2023-01-09T18:36:22.135Z,97870.38
2023-01-09T18:38:53.555Z,97879.81
2023-01-09T18:41:21.383Z,97887.41
2023-01-09T18:43:56.640Z,97892.75
2023-01-09T18:46:30.608Z,97890.00
2023-01-09T18:49:02.544Z,97898.88
2023-01-09T18:51:30.157Z,97910.97
2023-01-09T18:53:57.190Z,97905.84
2023-01-09T18:56:24.837Z,97913.03
2023-01-09T18:58:56.712Z,97904.47
2023-01-09T19:01:24.183Z,97916.44
2023-01-09T19:03:50.804Z,97912.97
2023-01-09T19:06:17.394Z,97919.97
2023-01-09T19:08:44.147Z,97928.75
2023-01-09T19:11:10.967Z,97941.63
2023-01-09T19:13:38.446Z,97943.69
2023-01-09T19:16:06.613Z,97949.59
2023-01-09T19:18:42.829Z,97956.50
2023-01-09T19:21:12.413Z,97960.94
2023-01-09T19:23:40.584Z,97972.19
2023-01-09T19:26:09.196Z,97967.13
2023-01-09T19:28:36.522Z,97961.84
2023-01-09T19:31:03.167Z,97968.75
2023-01-09T19:33:29.765Z,97974.78
2023-01-09T19:35:56.397Z,97981.94
2023-01-09T19:38:23.287Z,97982.13
2023-01-09T19:40:50.349Z,97983.88
2023-01-09T19:43:25.911Z,97992.34
2023-01-09T19:45:54.387Z,97990.78
2023-01-09T19:48:22.387Z,97994.19
2023-01-09T19:50:49.091Z,97995.22
2023-01-09T19:53:15.897Z,97999.59
2023-01-09T19:55:42.453Z,98000.38
2023-01-09T19:58:09.005Z,98011.63
2023-01-09T20:00:36.740Z,98010.84
2023-01-09T20:03:04.380Z,98019.53
2023-01-09T20:05:30.960Z,98015.13
2023-01-09T20:07:57.694Z,98026.31
2023-01-09T20:10:24.305Z,98036.63
2023-01-09T20:12:51.529Z,98042.03
2023-01-09T20:15:18.243Z,98044.69
2023-01-09T20:17:44.835Z,98053.53
2023-01-09T20:20:11.683Z,98054.19
2023-01-09T20:22:38.252Z,98054.34
2023-01-09T20:25:05.219Z,98062.16
2023-01-09T20:27:31.742Z,98061.53
2023-01-09T20:29:58.322Z,98071.88
2023-01-09T20:32:24.910Z,98077.03
2023-01-09T20:34:51.439Z,98073.56
2023-01-09T20:37:18.026Z,98078.72
2023-01-09T20:39:44.628Z,98083.00
2023-01-09T20:42:11.716Z,98077.94
2023-01-09T20:44:38.289Z,98092.66
2023-01-09T20:47:04.911Z,98092.06
2023-01-09T20:49:31.533Z,98097.00
2023-01-09T20:51:58.384Z,98092.66
2023-01-09T20:54:25.169Z,98102.44
2023-01-09T20:56:51.827Z,98107.50
2023-01-09T20:59:21.148Z,98106.72
2023-01-09T21:01:47.817Z,98107.41
2023-01-09T21:04:14.462Z,98104.69
2023-01-09T21:06:41.123Z,98108.28
2023-01-09T21:09:07.927Z,98113.47
2023-01-09T21:11:34.984Z,98118.47
2023-01-09T21:14:01.650Z,98124.59
2023-01-09T21:16:29.332Z,98128.03
2023-01-09T21:18:56.069Z,98141.84
2023-01-09T21:21:27.421Z,98135.84
2023-01-09T21:23:57.018Z,98146.28
2023-01-09T21:26:27.641Z,98161.22
2023-01-09T21:28:56.043Z,98162.31
2023-01-09T21:31:29.827Z,98170.28
2023-01-09T21:33:56.886Z,98174.63
2023-01-09T21:36:23.612Z,98193.78
2023-01-09T21:38:53.465Z,98198.34
2023-01-09T21:41:40.120Z,98206.47
2023-01-09T21:44:25.520Z,98205.13
2023-01-09T21:46:52.236Z,98213.31
2023-01-09T21:49:25.371Z,98219.69
2023-01-09T21:51:55.697Z,98223.91
2023-01-09T21:54:26.190Z,98222.50
2023-01-09T21:56:53.118Z,98234.44
2023-01-09T21:59:20.170Z,98245.25
2023-01-09T22:01:49.133Z,98266.91
2023-01-09T22:04:17.587Z,98268.25
2023-01-09T22:06:44.365Z,98273.50
2023-01-09T22:09:11.304Z,98282.44
2023-01-09T22:11:40.355Z,98279.56
2023-01-09T22:14:07.146Z,98287.63
2023-01-09T22:16:34.148Z,98296.69
2023-01-09T22:19:00.891Z,98295.94
2023-01-09T22:21:27.473Z,98309.56
2023-01-09T22:23:54.136Z,98307.91
2023-01-09T22:26:21.545Z,98293.34
2023-01-09T22:28:49.163Z,98306.13
2023-01-09T22:31:19.127Z,98310.34
2023-01-09T22:33:50.761Z,98311.91
2023-01-09T22:36:18.133Z,98331.16
2023-01-09T22:38:45.809Z,98331.78
2023-01-09T22:41:12.925Z,98332.69
2023-01-09T22:43:39.551Z,98345.63
2023-01-09T22:46:11.057Z,98356.22
2023-01-09T22:48:38.545Z,98357.84
2023-01-09T22:51:08.203Z,98372.25
2023-01-09T22:53:34.823Z,98366.06
2023-01-09T22:56:05.352Z,98374.66
2023-01-09T22:58:32.331Z,98375.81
2023-01-09T23:00:58.987Z,98382.66
2023-01-09T23:03:26.060Z,98380.06
2023-01-09T23:06:11.974Z,98388.03
2023-01-09T23:08:39.150Z,98392.66
2023-01-09T23:11:08.508Z,98393.38
2023-01-09T23:13:35.247Z,98395.09
2023-01-09T23:16:01.895Z,98396.78
2023-01-09T23:18:28.974Z,98401.09
2023-01-09T23:21:01.849Z,98390.84
2023-01-09T23:23:30.719Z,98402.94
2023-01-09T23:25:59.632Z,98403.78
2023-01-09T23:28:27.154Z,98414.19
2023-01-09T23:30:54.166Z,98415.91
2023-01-09T23:33:21.365Z,98423.06
2023-01-09T23:35:48.304Z,98423.06
2023-01-09T23:38:15.428Z,98426.59
2023-01-09T23:40:42.538Z,98429.88
2023-01-09T23:43:14.149Z,98436.75
2023-01-09T23:45:45.513Z,98447.38
2023-01-09T23:48:15.151Z,98452.44
2023-01-09T23:50:49.792Z,98450.81
2023-01-09T23:53:18.174Z,98469.13
2023-01-09T23:55:45.407Z,98471.59
2023-01-09T23:58:12.297Z,98484.63
